sensor_id;sensor_type;location;lat;lon;timestamp;pressure;altitude;pressure_sealevel;temperature;humidity
49529;BME280;35423;37.320;-121.762;2023-04-03T00:01:13;100266.19;;;24.79;18.22
49529;BME280;35423;37.320;-121.762;2023-04-03T00:03:39;100268.68;;;24.42;18.33
49529;BME280;35423;37.320;-121.762;2023-04-03T00:06:10;100271.10;;;24.44;18.42
49529;BME280;35423;37.320;-121.762;2023-04-03T00:08:30;100269.02;;;24.62;18.38
49529;BME280;35423;37.320;-121.762;2023-04-03T00:11:01;100274.80;;;24.49;18.59
49529;BME280;35423;37.320;-121.762;2023-04-03T00:13:26;100267.99;;;24.32;18.63
49529;BME280;35423;37.320;-121.762;2023-04-03T00:15:53;100267.29;;;24.17;18.69
49529;BME280;35423;37.320;-121.762;2023-04-03T00:18:19;100270.74;;;24.26;18.69
49529;BME280;35423;37.320;-121.762;2023-04-03T00:20:52;100269.28;;;24.34;18.70
49529;BME280;35423;37.320;-121.762;2023-04-03T00:23:19;100268.93;;;23.56;18.83
49529;BME280;35423;37.320;-121.762;2023-04-03T00:25:46;100264.88;;;24.05;18.67
49529;BME280;35423;37.320;-121.762;2023-04-03T00:28:12;100267.68;;;23.97;18.68
49529;BME280;35423;37.320;-121.762;2023-04-03T00:30:42;100265.36;;;23.66;18.58
49529;BME280;35423;37.320;-121.762;2023-04-03T00:33:11;100268.71;;;23.75;18.61
49529;BME280;35423;37.320;-121.762;2023-04-03T00:35:37;100267.59;;;23.64;18.83
49529;BME280;35423;37.320;-121.762;2023-04-03T00:38:02;100264.79;;;23.59;19.11
49529;BME280;35423;37.320;-121.762;2023-04-03T00:40:34;100261.11;;;23.57;19.25
49529;BME280;35423;37.320;-121.762;2023-04-03T00:42:58;100254.68;;;23.59;19.32
49529;BME280;35423;37.320;-121.762;2023-04-03T00:45:32;100256.48;;;23.54;19.20
49529;BME280;35423;37.320;-121.762;2023-04-03T00:47:54;100256.42;;;23.73;19.11
49529;BME280;35423;37.320;-121.762;2023-04-03T00:50:23;100253.38;;;23.69;18.86
49529;BME280;35423;37.320;-121.762;2023-04-03T00:52:51;100251.02;;;23.90;18.79
49529;BME280;35423;37.320;-121.762;2023-04-03T00:55:18;100251.04;;;23.54;18.94
49529;BME280;35423;37.320;-121.762;2023-04-03T00:57:52;100247.50;;;23.23;19.18
49529;BME280;35423;37.320;-121.762;2023-04-03T01:00:26;100244.54;;;23.59;19.15
49529;BME280;35423;37.320;-121.762;2023-04-03T01:02:52;100244.40;;;23.80;19.09
49529;BME280;35423;37.320;-121.762;2023-04-03T01:05:20;100242.58;;;23.78;18.97
49529;BME280;35423;37.320;-121.762;2023-04-03T01:07:47;100235.44;;;24.17;18.97
49529;BME280;35423;37.320;-121.762;2023-04-03T01:10:15;100231.22;;;24.28;18.96
49529;BME280;35423;37.320;-121.762;2023-04-03T01:12:42;100232.21;;;24.05;18.95
49529;BME280;35423;37.320;-121.762;2023-04-03T01:15:10;100228.28;;;24.16;19.04
49529;BME280;35423;37.320;-121.762;2023-04-03T01:17:34;100228.28;;;24.06;19.17
49529;BME280;35423;37.320;-121.762;2023-04-03T01:22:27;100230.41;;;23.67;19.28
49529;BME280;35423;37.320;-121.762;2023-04-03T01:24:55;100228.60;;;23.24;19.43
49529;BME280;35423;37.320;-121.762;2023-04-03T01:27:23;100222.54;;;23.53;19.56
49529;BME280;35423;37.320;-121.762;2023-04-03T01:29:50;100213.90;;;23.09;19.78
49529;BME280;35423;37.320;-121.762;2023-04-03T01:32:16;100214.50;;;22.97;19.87
49529;BME280;35423;37.320;-121.762;2023-04-03T01:34:42;100218.26;;;22.88;20.06
49529;BME280;35423;37.320;-121.762;2023-04-03T01:37:07;100215.24;;;22.79;20.18
49529;BME280;35423;37.320;-121.762;2023-04-03T01:39:37;100213.92;;;22.65;20.30
49529;BME280;35423;37.320;-121.762;2023-04-03T01:42:02;100211.41;;;22.85;20.37
49529;BME280;35423;37.320;-121.762;2023-04-03T01:44:27;100210.06;;;22.54;20.49
49529;BME280;35423;37.320;-121.762;2023-04-03T01:46:53;100208.18;;;22.74;20.63
49529;BME280;35423;37.320;-121.762;2023-04-03T01:49:20;100205.95;;;22.64;20.82
49529;BME280;35423;37.320;-121.762;2023-04-03T01:51:47;100208.13;;;22.83;20.90
49529;BME280;35423;37.320;-121.762;2023-04-03T01:54:12;100209.33;;;22.55;21.02
49529;BME280;35423;37.320;-121.762;2023-04-03T01:56:38;100206.69;;;22.54;21.11
49529;BME280;35423;37.320;-121.762;2023-04-03T01:59:04;100205.26;;;22.21;21.10
49529;BME280;35423;37.320;-121.762;2023-04-03T02:01:30;100203.67;;;22.41;20.74
49529;BME280;35423;37.320;-121.762;2023-04-03T02:03:56;100204.40;;;22.03;20.60
49529;BME280;35423;37.320;-121.762;2023-04-03T02:06:23;100202.87;;;22.41;20.56
49529;BME280;35423;37.320;-121.762;2023-04-03T02:08:50;100199.15;;;22.11;20.44
49529;BME280;35423;37.320;-121.762;2023-04-03T02:11:19;100199.97;;;22.00;20.53
49529;BME280;35423;37.320;-121.762;2023-04-03T02:13:46;100197.23;;;22.39;20.47
49529;BME280;35423;37.320;-121.762;2023-04-03T02:16:15;100195.42;;;22.26;20.53
49529;BME280;35423;37.320;-121.762;2023-04-03T02:18:40;100192.10;;;21.68;20.65
49529;BME280;35423;37.320;-121.762;2023-04-03T02:21:08;100193.44;;;22.05;20.57
49529;BME280;35423;37.320;-121.762;2023-04-03T02:23:41;100194.26;;;21.69;20.60
49529;BME280;35423;37.320;-121.762;2023-04-03T02:26:12;100192.33;;;21.60;20.75
49529;BME280;35423;37.320;-121.762;2023-04-03T02:28:37;100199.29;;;21.51;20.85
49529;BME280;35423;37.320;-121.762;2023-04-03T02:31:08;100196.75;;;21.80;21.26
49529;BME280;35423;37.320;-121.762;2023-04-03T02:33:33;100195.52;;;21.49;21.44
49529;BME280;35423;37.320;-121.762;2023-04-03T02:36:06;100197.12;;;21.41;21.75
49529;BME280;35423;37.320;-121.762;2023-04-03T02:38:34;100199.81;;;21.65;21.92
49529;BME280;35423;37.320;-121.762;2023-04-03T02:41:01;100195.82;;;21.32;21.89
49529;BME280;35423;37.320;-121.762;2023-04-03T02:43:27;100200.94;;;21.03;21.99
49529;BME280;35423;37.320;-121.762;2023-04-03T02:45:56;100204.07;;;21.19;22.10
49529;BME280;35423;37.320;-121.762;2023-04-03T02:48:22;100208.82;;;20.88;22.33
49529;BME280;35423;37.320;-121.762;2023-04-03T02:50:53;100207.85;;;21.24;22.74
49529;BME280;35423;37.320;-121.762;2023-04-03T02:53:21;100205.88;;;21.12;23.06
49529;BME280;35423;37.320;-121.762;2023-04-03T02:55:46;100208.41;;;21.04;23.25
49529;BME280;35423;37.320;-121.762;2023-04-03T02:58:14;100211.25;;;20.96;23.43
49529;BME280;35423;37.320;-121.762;2023-04-03T03:00:41;100209.90;;;20.86;23.48
49529;BME280;35423;37.320;-121.762;2023-04-03T03:03:09;100210.03;;;20.76;23.60
49529;BME280;35423;37.320;-121.762;2023-04-03T03:05:37;100214.55;;;20.80;23.46
49529;BME280;35423;37.320;-121.762;2023-04-03T03:08:12;100210.10;;;20.71;23.53
49529;BME280;35423;37.320;-121.762;2023-04-03T03:10:46;100206.45;;;20.88;23.55
49529;BME280;35423;37.320;-121.762;2023-04-03T03:13:13;100207.20;;;20.81;23.59
49529;BME280;35423;37.320;-121.762;2023-04-03T03:15:38;100208.27;;;20.54;23.63
49529;BME280;35423;37.320;-121.762;2023-04-03T03:18:05;100211.54;;;20.72;23.73
49529;BME280;35423;37.320;-121.762;2023-04-03T03:20:30;100207.71;;;20.49;23.76
49529;BME280;35423;37.320;-121.762;2023-04-03T03:22:56;100205.11;;;20.74;23.79
49529;BME280;35423;37.320;-121.762;2023-04-03T03:25:22;100207.34;;;20.52;23.70
49529;BME280;35423;37.320;-121.762;2023-04-03T03:27:49;100208.09;;;20.67;23.59
49529;BME280;35423;37.320;-121.762;2023-04-03T03:30:17;100208.83;;;20.66;23.48
49529;BME280;35423;37.320;-121.762;2023-04-03T03:32:45;100206.79;;;20.55;23.50
49529;BME280;35423;37.320;-121.762;2023-04-03T03:35:11;100207.80;;;20.30;23.55
49529;BME280;35423;37.320;-121.762;2023-04-03T03:37:43;100207.04;;;20.51;23.52
49529;BME280;35423;37.320;-121.762;2023-04-03T03:40:16;100209.73;;;20.48;23.40
49529;BME280;35423;37.320;-121.762;2023-04-03T03:42:45;100215.28;;;20.40;23.43
49529;BME280;35423;37.320;-121.762;2023-04-03T03:45:13;100217.80;;;20.32;23.50
49529;BME280;35423;37.320;-121.762;2023-04-03T03:47:40;100223.44;;;20.33;23.86
49529;BME280;35423;37.320;-121.762;2023-04-03T03:50:06;100227.85;;;20.27;24.54
49529;BME280;35423;37.320;-121.762;2023-04-03T03:52:32;100226.35;;;20.15;24.86
49529;BME280;35423;37.320;-121.762;2023-04-03T03:55:03;100222.86;;;20.00;25.14
49529;BME280;35423;37.320;-121.762;2023-04-03T03:57:29;100226.99;;;20.12;25.43
49529;BME280;35423;37.320;-121.762;2023-04-03T03:59:57;100227.98;;;19.73;25.54
49529;BME280;35423;37.320;-121.762;2023-04-03T04:02:30;100226.01;;;19.62;25.82
49529;BME280;35423;37.320;-121.762;2023-04-03T04:05:08;100227.43;;;20.06;25.91
49529;BME280;35423;37.320;-121.762;2023-04-03T04:07:37;100224.99;;;19.49;25.94
49529;BME280;35423;37.320;-121.762;2023-04-03T04:10:05;100224.91;;;19.93;25.98
49529;BME280;35423;37.320;-121.762;2023-04-03T04:12:31;100224.91;;;19.38;26.13
49529;BME280;35423;37.320;-121.762;2023-04-03T04:14:55;100225.35;;;19.92;26.01
49529;BME280;35423;37.320;-121.762;2023-04-03T04:17:24;100226.63;;;19.65;26.05
49529;BME280;35423;37.320;-121.762;2023-04-03T04:19:50;100230.15;;;19.89;26.09
49529;BME280;35423;37.320;-121.762;2023-04-03T04:22:24;100225.45;;;19.84;26.05
49529;BME280;35423;37.320;-121.762;2023-04-03T04:24:50;100232.56;;;19.37;26.09
49529;BME280;35423;37.320;-121.762;2023-04-03T04:27:18;100234.54;;;19.86;26.18
49529;BME280;35423;37.320;-121.762;2023-04-03T04:29:45;100238.08;;;19.69;26.06
49529;BME280;35423;37.320;-121.762;2023-04-03T04:32:11;100239.47;;;19.93;25.98
49529;BME280;35423;37.320;-121.762;2023-04-03T04:34:37;100239.20;;;19.91;25.96
49529;BME280;35423;37.320;-121.762;2023-04-03T04:37:03;100241.75;;;19.61;25.91
49529;BME280;35423;37.320;-121.762;2023-04-03T04:39:35;100241.77;;;19.29;25.98
49529;BME280;35423;37.320;-121.762;2023-04-03T04:41:56;100244.15;;;19.77;26.00
49529;BME280;35423;37.320;-121.762;2023-04-03T04:44:23;100245.35;;;19.49;25.90
49529;BME280;35423;37.320;-121.762;2023-04-03T04:46:48;100244.20;;;19.62;26.06
49529;BME280;35423;37.320;-121.762;2023-04-03T04:49:14;100244.95;;;19.40;26.13
49529;BME280;35423;37.320;-121.762;2023-04-03T04:51:47;100246.72;;;19.57;25.90
49529;BME280;35423;37.320;-121.762;2023-04-03T04:54:15;100244.10;;;19.51;25.60
49529;BME280;35423;37.320;-121.762;2023-04-03T04:56:40;100240.89;;;19.66;25.21
49529;BME280;35423;37.320;-121.762;2023-04-03T04:59:06;100238.63;;;19.14;25.15
49529;BME280;35423;37.320;-121.762;2023-04-03T05:01:32;100239.17;;;19.28;25.21
49529;BME280;35423;37.320;-121.762;2023-04-03T05:04:00;100243.64;;;18.95;25.25
49529;BME280;35423;37.320;-121.762;2023-04-03T05:06:26;100246.73;;;19.12;25.46
49529;BME280;35423;37.320;-121.762;2023-04-03T05:09:02;100247.85;;;19.03;26.10
49529;BME280;35423;37.320;-121.762;2023-04-03T05:11:27;100246.50;;;19.12;26.63
49529;BME280;35423;37.320;-121.762;2023-04-03T05:13:53;100248.63;;;19.02;26.98
49529;BME280;35423;37.320;-121.762;2023-04-03T05:16:24;100249.90;;;18.64;27.38
49529;BME280;35423;37.320;-121.762;2023-04-03T05:18:50;100250.44;;;18.56;27.62
49529;BME280;35423;37.320;-121.762;2023-04-03T05:21:25;100258.09;;;18.74;27.89
49529;BME280;35423;37.320;-121.762;2023-04-03T05:23:45;100259.22;;;18.71;28.18
49529;BME280;35423;37.320;-121.762;2023-04-03T05:26:11;100261.07;;;18.96;28.07
49529;BME280;35423;37.320;-121.762;2023-04-03T05:28:36;100259.53;;;18.60;28.25
49529;BME280;35423;37.320;-121.762;2023-04-03T05:31:03;100260.66;;;18.79;28.46
49529;BME280;35423;37.320;-121.762;2023-04-03T05:33:31;100258.25;;;18.27;28.51
49529;BME280;35423;37.320;-121.762;2023-04-03T05:36:03;100257.43;;;18.48;28.50
49529;BME280;35423;37.320;-121.762;2023-04-03T05:38:26;100258.23;;;18.44;28.35
49529;BME280;35423;37.320;-121.762;2023-04-03T05:40:56;100254.59;;;18.61;28.38
49529;BME280;35423;37.320;-121.762;2023-04-03T05:43:25;100254.83;;;18.52;28.32
49529;BME280;35423;37.320;-121.762;2023-04-03T05:45:49;100254.25;;;18.46;28.29
49529;BME280;35423;37.320;-121.762;2023-04-03T05:48:16;100251.75;;;18.15;28.28
49529;BME280;35423;37.320;-121.762;2023-04-03T05:50:41;100248.99;;;18.39;28.19
49529;BME280;35423;37.320;-121.762;2023-04-03T05:53:18;100246.72;;;18.38;28.29
49529;BME280;35423;37.320;-121.762;2023-04-03T05:55:42;100241.72;;;18.07;28.33
49529;BME280;35423;37.320;-121.762;2023-04-03T05:58:08;100237.53;;;18.02;28.28
49529;BME280;35423;37.320;-121.762;2023-04-03T06:00:34;100242.66;;;18.21;28.26
49529;BME280;35423;37.320;-121.762;2023-04-03T06:03:01;100246.32;;;17.93;28.25
49529;BME280;35423;37.320;-121.762;2023-04-03T06:05:27;100245.29;;;17.84;28.16
49529;BME280;35423;37.320;-121.762;2023-04-03T06:07:53;100245.09;;;18.05;28.25
49529;BME280;35423;37.320;-121.762;2023-04-03T06:10:20;100241.78;;;17.77;28.13
49529;BME280;35423;37.320;-121.762;2023-04-03T06:12:48;100244.89;;;18.01;28.03
49529;BME280;35423;37.320;-121.762;2023-04-03T06:15:16;100239.07;;;17.95;28.08
49529;BME280;35423;37.320;-121.762;2023-04-03T06:17:47;100235.82;;;18.09;28.14
49529;BME280;35423;37.320;-121.762;2023-04-03T06:20:13;100234.84;;;17.86;28.12
49529;BME280;35423;37.320;-121.762;2023-04-03T06:22:42;100233.16;;;18.07;28.06
49529;BME280;35423;37.320;-121.762;2023-04-03T06:25:09;100235.84;;;17.83;27.90
49529;BME280;35423;37.320;-121.762;2023-04-03T06:27:36;100235.26;;;17.81;27.62
49529;BME280;35423;37.320;-121.762;2023-04-03T06:30:08;100234.33;;;17.82;27.50
49529;BME280;35423;37.320;-121.762;2023-04-03T06:32:32;100233.51;;;17.85;27.45
49529;BME280;35423;37.320;-121.762;2023-04-03T06:35:00;100231.55;;;17.85;27.41
49529;BME280;35423;37.320;-121.762;2023-04-03T06:37:25;100229.42;;;17.87;27.44
49529;BME280;35423;37.320;-121.762;2023-04-03T06:39:51;100227.12;;;18.12;27.36
49529;BME280;35423;37.320;-121.762;2023-04-03T06:42:16;100222.99;;;17.89;27.42
49529;BME280;35423;37.320;-121.762;2023-04-03T06:44:44;100223.74;;;17.91;27.48
49529;BME280;35423;37.320;-121.762;2023-04-03T06:47:11;100222.12;;;17.90;27.50
49529;BME280;35423;37.320;-121.762;2023-04-03T06:49:39;100221.92;;;17.88;27.47
49529;BME280;35423;37.320;-121.762;2023-04-03T06:52:05;100225.00;;;17.60;27.50
49529;BME280;35423;37.320;-121.762;2023-04-03T06:54:42;100225.56;;;18.10;27.47
49529;BME280;35423;37.320;-121.762;2023-04-03T06:57:12;100224.68;;;17.84;27.32
49529;BME280;35423;37.320;-121.762;2023-04-03T06:59:43;100222.20;;;17.76;27.30
49529;BME280;35423;37.320;-121.762;2023-04-03T07:02:10;100219.34;;;17.72;27.24
49529;BME280;35423;37.320;-121.762;2023-04-03T07:04:37;100218.39;;;17.63;27.15
49529;BME280;35423;37.320;-121.762;2023-04-03T07:07:02;100212.53;;;17.54;27.14
49529;BME280;35423;37.320;-121.762;2023-04-03T07:09:29;100212.24;;;17.44;27.02
49529;BME280;35423;37.320;-121.762;2023-04-03T07:11:56;100213.52;;;17.79;26.95
49529;BME280;35423;37.320;-121.762;2023-04-03T07:14:25;100212.79;;;17.32;26.88
49529;BME280;35423;37.320;-121.762;2023-04-03T07:16:51;100212.98;;;17.32;26.91
49529;BME280;35423;37.320;-121.762;2023-04-03T07:19:22;100211.39;;;17.34;27.00
49529;BME280;35423;37.320;-121.762;2023-04-03T07:21:51;100213.34;;;17.78;27.07
49529;BME280;35423;37.320;-121.762;2023-04-03T07:24:19;100214.73;;;17.50;27.14
49529;BME280;35423;37.320;-121.762;2023-04-03T07:26:50;100213.06;;;17.26;27.20
49529;BME280;35423;37.320;-121.762;2023-04-03T07:29:14;100214.31;;;17.19;27.20
49529;BME280;35423;37.320;-121.762;2023-04-03T07:31:41;100214.88;;;17.14;27.18
49529;BME280;35423;37.320;-121.762;2023-04-03T07:34:07;100212.96;;;17.29;27.20
49529;BME280;35423;37.320;-121.762;2023-04-03T07:36:35;100214.15;;;16.96;27.15
49529;BME280;35423;37.320;-121.762;2023-04-03T07:39:04;100214.74;;;16.88;26.89
49529;BME280;35423;37.320;-121.762;2023-04-03T07:41:30;100221.34;;;17.04;26.79
49529;BME280;35423;37.320;-121.762;2023-04-03T07:43:57;100225.44;;;17.20;26.72
49529;BME280;35423;37.320;-121.762;2023-04-03T07:46:22;100225.51;;;16.95;26.63
49529;BME280;35423;37.320;-121.762;2023-04-03T07:48:49;100227.30;;;17.10;26.31
49529;BME280;35423;37.320;-121.762;2023-04-03T07:51:15;100230.36;;;17.02;25.87
49529;BME280;35423;37.320;-121.762;2023-04-03T07:53:41;100237.80;;;17.26;25.48
49529;BME280;35423;37.320;-121.762;2023-04-03T07:56:09;100237.09;;;16.90;25.55
49529;BME280;35423;37.320;-121.762;2023-04-03T07:58:38;100234.13;;;16.80;25.70
49529;BME280;35423;37.320;-121.762;2023-04-03T08:01:06;100238.22;;;16.73;25.91
49529;BME280;35423;37.320;-121.762;2023-04-03T08:03:33;100238.75;;;16.65;26.06
49529;BME280;35423;37.320;-121.762;2023-04-03T08:06:03;100234.06;;;16.59;26.18
49529;BME280;35423;37.320;-121.762;2023-04-03T08:08:30;100237.24;;;16.81;26.31
49529;BME280;35423;37.320;-121.762;2023-04-03T08:10:57;100234.31;;;16.47;26.36
49529;BME280;35423;37.320;-121.762;2023-04-03T08:13:30;100231.24;;;16.48;26.35
49529;BME280;35423;37.320;-121.762;2023-04-03T08:15:55;100231.88;;;16.49;26.28
49529;BME280;35423;37.320;-121.762;2023-04-03T08:18:21;100237.05;;;16.44;26.35
49529;BME280;35423;37.320;-121.762;2023-04-03T08:20:47;100234.97;;;16.41;26.36
49529;BME280;35423;37.320;-121.762;2023-04-03T08:23:14;100237.65;;;16.65;26.44
49529;BME280;35423;37.320;-121.762;2023-04-03T08:25:41;100241.38;;;16.34;26.59
49529;BME280;35423;37.320;-121.762;2023-04-03T08:28:12;100238.67;;;16.32;26.53
49529;BME280;35423;37.320;-121.762;2023-04-03T08:30:38;100231.88;;;16.20;26.66
49529;BME280;35423;37.320;-121.762;2023-04-03T08:33:04;100235.44;;;16.45;26.75
49529;BME280;35423;37.320;-121.762;2023-04-03T08:35:29;100233.14;;;16.23;26.82
49529;BME280;35423;37.320;-121.762;2023-04-03T08:37:54;100230.05;;;16.03;26.77
49529;BME280;35423;37.320;-121.762;2023-04-03T08:40:23;100233.46;;;16.47;26.82
49529;BME280;35423;37.320;-121.762;2023-04-03T08:42:56;100233.06;;;16.20;26.78
49529;BME280;35423;37.320;-121.762;2023-04-03T08:45:19;100232.31;;;16.65;26.83
49529;BME280;35423;37.320;-121.762;2023-04-03T08:47:47;100230.78;;;16.17;26.86
49529;BME280;35423;37.320;-121.762;2023-04-03T08:50:13;100225.92;;;16.39;26.89
49529;BME280;35423;37.320;-121.762;2023-04-03T08:52:38;100224.09;;;16.09;26.94
49529;BME280;35423;37.320;-121.762;2023-04-03T08:55:03;100230.33;;;16.07;26.99
49529;BME280;35423;37.320;-121.762;2023-04-03T08:57:30;100228.91;;;16.33;27.02
49529;BME280;35423;37.320;-121.762;2023-04-03T08:59:51;100229.25;;;16.33;27.06
49529;BME280;35423;37.320;-121.762;2023-04-03T09:02:23;100230.35;;;16.07;27.07
49529;BME280;35423;37.320;-121.762;2023-04-03T09:04:43;100237.32;;;16.29;27.05
49529;BME280;35423;37.320;-121.762;2023-04-03T09:07:20;100236.85;;;16.24;26.95
49529;BME280;35423;37.320;-121.762;2023-04-03T09:09:43;100233.05;;;16.42;26.94
49529;BME280;35423;37.320;-121.762;2023-04-03T09:12:17;100229.15;;;16.42;26.72
49529;BME280;35423;37.320;-121.762;2023-04-03T09:14:41;100228.52;;;15.84;26.48
49529;BME280;35423;37.320;-121.762;2023-04-03T09:17:12;100226.79;;;16.07;26.33
49529;BME280;35423;37.320;-121.762;2023-04-03T09:19:37;100228.30;;;15.99;26.10
49529;BME280;35423;37.320;-121.762;2023-04-03T09:21:58;100227.82;;;15.96;26.01
49529;BME280;35423;37.320;-121.762;2023-04-03T09:24:25;100224.08;;;15.93;25.89
49529;BME280;35423;37.320;-121.762;2023-04-03T09:26:56;100217.52;;;16.09;25.88
49529;BME280;35423;37.320;-121.762;2023-04-03T09:29:22;100217.10;;;15.98;25.95
49529;BME280;35423;37.320;-121.762;2023-04-03T09:31:49;100221.06;;;15.94;25.94
49529;BME280;35423;37.320;-121.762;2023-04-03T09:34:20;100223.19;;;15.90;25.82
49529;BME280;35423;37.320;-121.762;2023-04-03T09:36:44;100221.61;;;15.89;25.66
49529;BME280;35423;37.320;-121.762;2023-04-03T09:39:12;100224.56;;;15.61;25.57
49529;BME280;35423;37.320;-121.762;2023-04-03T09:41:31;100221.15;;;15.80;25.67
49529;BME280;35423;37.320;-121.762;2023-04-03T09:44:00;100218.30;;;15.52;25.55
49529;BME280;35423;37.320;-121.762;2023-04-03T09:46:31;100216.72;;;15.67;25.49
49529;BME280;35423;37.320;-121.762;2023-04-03T09:48:55;100213.15;;;15.60;25.29
49529;BME280;35423;37.320;-121.762;2023-04-03T09:51:16;100207.37;;;15.50;25.26
49529;BME280;35423;37.320;-121.762;2023-04-03T09:53:43;100208.21;;;15.38;25.14
49529;BME280;35423;37.320;-121.762;2023-04-03T09:58:38;100209.75;;;15.05;25.21
49529;BME280;35423;37.320;-121.762;2023-04-03T10:01:02;100220.58;;;14.93;25.25
49529;BME280;35423;37.320;-121.762;2023-04-03T10:03:30;100219.52;;;14.81;25.23
49529;BME280;35423;37.320;-121.762;2023-04-03T10:05:52;100216.21;;;15.20;25.23
49529;BME280;35423;37.320;-121.762;2023-04-03T10:08:23;100210.51;;;14.62;25.26
49529;BME280;35423;37.320;-121.762;2023-04-03T10:10:45;100205.56;;;14.60;25.36
49529;BME280;35423;37.320;-121.762;2023-04-03T10:13:18;100207.16;;;14.79;25.44
49529;BME280;35423;37.320;-121.762;2023-04-03T10:15:51;100210.69;;;14.47;25.48
49529;BME280;35423;37.320;-121.762;2023-04-03T10:18:22;100215.15;;;14.70;25.50
49529;BME280;35423;37.320;-121.762;2023-04-03T10:20:44;100213.60;;;14.67;25.42
49529;BME280;35423;37.320;-121.762;2023-04-03T10:23:15;100207.73;;;14.62;25.48
49529;BME280;35423;37.320;-121.762;2023-04-03T10:25:37;100208.41;;;14.79;25.58
49529;BME280;35423;37.320;-121.762;2023-04-03T10:28:02;100204.85;;;14.53;25.64
49529;BME280;35423;37.320;-121.762;2023-04-03T10:30:36;100209.48;;;14.75;25.53
49529;BME280;35423;37.320;-121.762;2023-04-03T10:33:01;100203.65;;;14.45;25.46
49529;BME280;35423;37.320;-121.762;2023-04-03T10:35:33;100200.24;;;14.38;25.33
49529;BME280;35423;37.320;-121.762;2023-04-03T10:38:03;100200.78;;;14.09;25.25
49529;BME280;35423;37.320;-121.762;2023-04-03T10:40:30;100201.21;;;14.58;25.21
49529;BME280;35423;37.320;-121.762;2023-04-03T10:42:52;100206.85;;;14.07;25.14
49529;BME280;35423;37.320;-121.762;2023-04-03T10:45:21;100209.58;;;14.32;25.15
49529;BME280;35423;37.320;-121.762;2023-04-03T10:47:46;100209.62;;;14.35;25.08
49529;BME280;35423;37.320;-121.762;2023-04-03T10:52:39;100212.68;;;14.65;24.93
49529;BME280;35423;37.320;-121.762;2023-04-03T10:55:06;100212.98;;;14.67;24.76
49529;BME280;35423;37.320;-121.762;2023-04-03T10:57:25;100210.63;;;14.65;24.66
49529;BME280;35423;37.320;-121.762;2023-04-03T10:59:51;100211.65;;;14.59;24.70
49529;BME280;35423;37.320;-121.762;2023-04-03T11:02:22;100211.65;;;14.59;24.74
49529;BME280;35423;37.320;-121.762;2023-04-03T11:04:42;100213.72;;;14.63;24.66
49529;BME280;35423;37.320;-121.762;2023-04-03T11:07:11;100209.84;;;14.57;24.59
49529;BME280;35423;37.320;-121.762;2023-04-03T11:09:37;100213.09;;;14.56;24.41
49529;BME280;35423;37.320;-121.762;2023-04-03T11:12:06;100203.21;;;14.53;24.22
49529;BME280;35423;37.320;-121.762;2023-04-03T11:14:29;100197.37;;;14.24;24.37
49529;BME280;35423;37.320;-121.762;2023-04-03T11:17:01;100200.61;;;14.37;24.34
49529;BME280;35423;37.320;-121.762;2023-04-03T11:19:21;100195.43;;;14.29;24.46
49529;BME280;35423;37.320;-121.762;2023-04-03T11:21:48;100197.91;;;14.44;24.34
49529;BME280;35423;37.320;-121.762;2023-04-03T11:24:20;100196.12;;;14.19;24.33
49529;BME280;35423;37.320;-121.762;2023-04-03T11:26:42;100202.31;;;14.08;24.53
49529;BME280;35423;37.320;-121.762;2023-04-03T11:29:09;100203.82;;;14.09;24.57
49529;BME280;35423;37.320;-121.762;2023-04-03T11:31:42;100205.81;;;14.07;24.60
49529;BME280;35423;37.320;-121.762;2023-04-03T11:34:09;100208.06;;;13.81;24.71
49529;BME280;35423;37.320;-121.762;2023-04-03T11:36:40;100206.53;;;14.05;24.69
49529;BME280;35423;37.320;-121.762;2023-04-03T11:39:06;100207.53;;;14.04;24.64
49529;BME280;35423;37.320;-121.762;2023-04-03T11:41:30;100207.20;;;13.95;24.62
49529;BME280;35423;37.320;-121.762;2023-04-03T11:43:58;100209.16;;;13.83;24.63
49529;BME280;35423;37.320;-121.762;2023-04-03T11:46:19;100205.36;;;13.72;24.60
49529;BME280;35423;37.320;-121.762;2023-04-03T11:48:50;100206.56;;;13.72;24.62
49529;BME280;35423;37.320;-121.762;2023-04-03T11:53:41;100218.51;;;13.91;24.65
49529;BME280;35423;37.320;-121.762;2023-04-03T11:58:35;100206.79;;;13.67;24.56
49529;BME280;35423;37.320;-121.762;2023-04-03T12:01:03;100202.96;;;13.88;24.56
49529;BME280;35423;37.320;-121.762;2023-04-03T12:03:35;100198.50;;;13.84;24.57
49529;BME280;35423;37.320;-121.762;2023-04-03T12:06:41;100207.38;;;13.78;24.47
49529;BME280;35423;37.320;-121.762;2023-04-03T12:08:26;100217.04;;;13.66;24.54
49529;BME280;35423;37.320;-121.762;2023-04-03T12:13:17;100212.69;;;13.81;24.69
49529;BME280;35423;37.320;-121.762;2023-04-03T12:15:49;100221.26;;;13.48;24.67
49529;BME280;35423;37.320;-121.762;2023-04-03T12:25:47;100227.65;;;13.24;24.60
49529;BME280;35423;37.320;-121.762;2023-04-03T12:28:06;100230.05;;;13.19;24.62
49529;BME280;35423;37.320;-121.762;2023-04-03T12:30:31;100230.77;;;13.08;24.65
49529;BME280;35423;37.320;-121.762;2023-04-03T12:33:03;100231.32;;;13.00;24.68
49529;BME280;35423;37.320;-121.762;2023-04-03T12:35:29;100231.02;;;13.03;24.44
49529;BME280;35423;37.320;-121.762;2023-04-03T12:40:25;100225.00;;;13.12;24.42
49529;BME280;35423;37.320;-121.762;2023-04-03T12:42:56;100227.45;;;13.10;24.34
49529;BME280;35423;37.320;-121.762;2023-04-03T12:45:17;100234.43;;;13.07;24.37